Time;durP1;ratioP1;P1;durP2;ratioP2;P2;SDS_P1;SDS_P2;PMS_P1;PMS_P2;Temp;Humidity;BMP_temperature;BMP_pressure;BME280_temperature;BME280_humidity;BME280_pressure;Samples;Min_cycle;Max_cycle;Signal;HPM_P1;HPM_P2
2022/06/09 12:35:52;;;;;;;0.00;0.00;;;18.20;90.80;;;;;;21094814;27;20428;-54
2022/06/09 12:46:03;;;;;;;0.40;0.00;;;18.30;91.10;;;;;;20990777;28;20559;-59
2022/06/09 12:56:28;;;;;;;0.13;0.10;;;18.20;90.10;;;;;;21010854;28;20442;-61
2022/06/09 13:06:35;;;;;;;0.35;0.00;;;18.20;90.60;;;;;;21014365;28;20054;-61
2022/06/09 13:16:44;;;;;;;0.10;0.05;;;17.90;92.40;;;;;;20990161;28;20036;-54
2022/06/09 13:26:48;;;;;;;5.93;0.52;;;17.80;91.30;;;;;;21021346;28;20123;-55
2022/06/09 13:36:54;;;;;;;0.10;0.00;;;18.70;87.40;;;;;;21038686;28;20086;-55
2022/06/09 13:47:25;;;;;;;0.45;0.00;;;19.20;88.70;;;;;;20994159;28;20041;-60
2022/06/09 13:57:36;;;;;;;0.00;0.00;;;19.10;90.20;;;;;;21008304;28;20031;-61
2022/06/09 14:07:38;;;;;;;0.00;0.00;;;18.70;91.60;;;;;;21077790;28;20438;-55
2022/06/09 14:17:46;;;;;;;0.20;0.00;;;18.70;90.70;;;;;;21075676;28;20039;-60
2022/06/09 14:27:49;;;;;;;0.17;0.00;;;18.20;90.40;;;;;;21074462;28;20082;-52
2022/06/09 14:37:52;;;;;;;0.88;0.00;;;17.20;91.20;;;;;;20998314;28;20034;-60
2022/06/09 14:47:55;;;;;;;0.15;0.00;;;17.20;91.30;;;;;;20989723;28;20036;-53
2022/06/09 14:57:58;;;;;;;0.10;0.00;;;18.00;91.20;;;;;;20988827;28;20097;-60
2022/06/09 15:08:01;;;;;;;0.10;0.05;;;18.90;90.50;;;;;;20987642;28;20024;-60
2022/06/09 15:18:06;;;;;;;0.88;0.03;;;17.60;89.60;;;;;;20986823;28;20445;-59
2022/06/09 15:28:11;;;;;;;0.28;0.00;;;17.30;90.20;;;;;;20985727;28;20540;-60
2022/06/09 15:38:14;;;;;;;1.95;0.05;;;16.70;91.00;;;;;;21063838;28;20044;-54
2022/06/09 15:48:24;;;;;;;0.10;0.00;;;16.50;91.40;;;;;;21068441;28;20040;-58
2022/06/09 15:58:27;;;;;;;0.10;0.00;;;17.90;88.80;;;;;;21067958;28;20073;-53
2022/06/09 16:08:29;;;;;;;0.15;0.00;;;18.10;89.50;;;;;;21067957;28;20093;-49
2022/06/09 16:18:32;;;;;;;0.00;0.00;;;17.20;90.70;;;;;;21067092;28;20032;-59
2022/06/09 16:28:35;;;;;;;1.45;0.00;;;17.00;90.60;;;;;;21066784;28;20049;-51
2022/06/09 16:38:37;;;;;;;1.25;0.10;;;17.30;89.00;;;;;;20985840;28;20041;-59
2022/06/09 16:48:41;;;;;;;0.10;0.00;;;17.20;90.50;;;;;;20982276;28;20044;-50
2022/06/09 16:58:44;;;;;;;1.38;0.00;;;16.30;89.70;;;;;;20982344;28;20094;-50
2022/06/09 17:08:49;;;;;;;0.00;0.00;;;15.50;89.70;;;;;;20991951;28;20037;-58
2022/06/09 17:18:53;;;;;;;0.00;0.00;;;14.90;91.90;;;;;;20996372;28;20074;-51
2022/06/09 17:28:55;;;;;;;0.00;0.00;;;14.40;93.10;;;;;;20978964;28;20056;-52
2022/06/09 17:38:58;;;;;;;0.65;0.35;;;14.00;94.60;;;;;;21078403;28;20028;-51
2022/06/09 17:49:01;;;;;;;0.00;0.00;;;14.10;92.90;;;;;;21077723;28;20036;-49
2022/06/09 17:59:11;;;;;;;0.17;0.00;;;14.30;92.10;;;;;;21077090;28;20490;-50
2022/06/09 18:09:14;;;;;;;0.10;0.00;;;14.40;91.90;;;;;;21076264;28;20044;-49
2022/06/09 18:19:16;;;;;;;0.20;0.00;;;14.50;90.00;;;;;;21075550;28;20278;-52
2022/06/09 18:29:19;;;;;;;0.10;0.00;;;14.70;88.10;;;;;;21070700;28;20524;-50
2022/06/09 18:39:22;;;;;;;0.63;0.00;;;14.70;87.50;;;;;;20990490;28;20062;-49
2022/06/09 18:49:26;;;;;;;1.45;0.00;;;14.50;87.90;;;;;;20897962;28;20095;-51
2022/06/09 18:59:30;;;;;;;0.30;0.10;;;14.40;87.70;;;;;;20880148;28;20167;-49
2022/06/09 19:09:36;;;;;;;0.22;0.00;;;14.20;88.60;;;;;;20891913;28;20037;-47
2022/06/09 19:19:42;;;;;;;1.17;0.00;;;14.00;88.50;;;;;;20975816;28;20432;-48
2022/06/09 19:29:44;;;;;;;0.10;0.00;;;13.80;89.50;;;;;;21068545;28;20043;-50
2022/06/09 19:39:47;;;;;;;0.00;0.00;;;13.60;89.60;;;;;;21068566;28;20105;-48
2022/06/09 19:49:52;;;;;;;1.63;0.00;;;13.30;90.00;;;;;;21068575;28;20089;-55
2022/06/09 19:59:55;;;;;;;0.85;0.00;;;13.40;90.00;;;;;;21067428;28;20089;-48
2022/06/09 20:09:58;;;;;;;0.00;0.00;;;13.40;90.10;;;;;;21067547;28;20028;-53
2022/06/09 20:20:00;;;;;;;0.95;0.05;;;13.20;89.00;;;;;;21037171;28;20445;-50
2022/06/09 20:30:04;;;;;;;0.20;0.00;;;13.20;89.60;;;;;;20992573;28;20052;-52
2022/06/09 20:40:09;;;;;;;0.10;0.10;;;13.20;88.20;;;;;;21070694;28;20085;-52
2022/06/09 20:50:19;;;;;;;0.93;0.10;;;13.10;88.00;;;;;;21082753;28;20058;-52
2022/06/09 21:00:23;;;;;;;0.08;0.00;;;13.00;88.90;;;;;;21081168;28;20036;-53
2022/06/09 21:20:48;;;;;;;0.35;0.10;;;12.80;89.00;;;;;;21079762;28;20036;-58
2022/06/09 21:30:55;;;;;;;0.57;0.10;;;12.80;88.60;;;;;;21062312;28;20101;-57
2022/06/09 21:40:57;;;;;;;0.80;0.20;;;12.80;88.50;;;;;;20994427;28;20063;-58
2022/06/09 21:51:01;;;;;;;0.43;0.00;;;12.70;88.40;;;;;;20993325;28;20036;-47
2022/06/09 22:01:04;;;;;;;0.70;0.00;;;12.60;88.20;;;;;;20992934;28;20036;-57
2022/06/09 22:11:07;;;;;;;0.05;0.00;;;12.70;88.50;;;;;;20992257;28;20036;-48
2022/06/09 22:21:10;;;;;;;0.90;0.00;;;12.60;88.30;;;;;;20991468;28;20097;-57
2022/06/09 22:31:13;;;;;;;0.30;0.00;;;12.50;88.80;;;;;;21009560;28;20097;-50
2022/06/09 22:41:16;;;;;;;0.08;0.00;;;12.60;87.30;;;;;;21073204;28;20036;-50
2022/06/09 22:51:30;;;;;;;0.30;0.10;;;12.40;89.40;;;;;;21073461;28;20043;-57
2022/06/09 23:01:32;;;;;;;2.08;0.00;;;12.50;88.00;;;;;;21070742;28;20057;-48
2022/06/09 23:11:35;;;;;;;1.63;0.10;;;12.40;87.90;;;;;;21070822;28;20070;-57
2022/06/09 23:21:37;;;;;;;1.25;0.05;;;12.30;89.00;;;;;;21070170;28;20043;-51
2022/06/09 23:31:40;;;;;;;0.10;0.00;;;12.20;88.70;;;;;;21045901;28;20048;-58
2022/06/09 23:41:42;;;;;;;0.43;0.20;;;12.20;87.90;;;;;;20985795;28;20040;-58
2022/06/09 23:51:46;;;;;;;0.30;0.10;;;12.20;88.30;;;;;;20984305;28;20028;-58
